Boynton Beach, Florida
Current Conditions -  °F | °C
As of 6:47 PM on Wednesday 26 Nov 2014 (Local Time) from KBCT Reporting Station
Broken Clouds Broken Clouds  
Wind Chill: 63°   Ceiling: 11000
Heat Index: 63°   Visibility: 10mi
Dew Point: 52°   Wind: 9mph
Humidity: 68%   Direction: 340°NNW
Pressure: 30.16"   Gusts: NA
Location:  26.53°N, 80.06°W
Report Text: KBCT 262347Z 34008KT 10SM FEW045 BKN110 17/11 A3016
Loading
Personal Weather Stations






























Interactive Weather Map New forecast layout! Learn more

10-Day Weather Forecast

Advertisements
Track Severe Weather on mobile